Time;durP1;ratioP1;P1;durP2;ratioP2;P2;SDS_P1;SDS_P2;PMS_P1;PMS_P2;Temp;Humidity;BMP_temperature;BMP_pressure;BME280_temperature;BME280_humidity;BME280_pressure;Samples;Min_cycle;Max_cycle;Signal;HPM_P1;HPM_P2
2022/01/10 00:00:23;;;;;;;;;;;25.00;99.90;;;;;;5072850;28;20279;-73
2022/01/10 00:02:51;;;;;;;;;;;24.90;99.90;;;;;;5105331;28;19923;-77
2022/01/10 00:05:18;;;;;;;;;;;24.90;99.90;;;;;;5072698;28;19950;-77
2022/01/10 00:07:44;;;;;;;;;;;25.00;99.90;;;;;;5072851;28;19913;-77
2022/01/10 00:10:11;;;;;;;;;;;25.00;99.90;;;;;;5072487;28;19974;-74
2022/01/10 00:12:38;;;;;;;;;;;24.90;99.90;;;;;;5072623;28;19997;-74
2022/01/10 00:15:06;;;;;;;;;;;24.90;99.90;;;;;;5072453;28;20356;-75
2022/01/10 00:17:32;;;;;;;;;;;24.80;99.90;;;;;;5072666;28;19915;-76
2022/01/10 00:19:59;;;;;;;;;;;24.90;99.90;;;;;;5072426;28;19909;-75
2022/01/10 00:22:26;;;;;;;;;;;25.00;99.90;;;;;;5072590;28;20255;-77
2022/01/10 00:24:53;;;;;;;;;;;25.00;99.90;;;;;;5072703;28;19912;-77
2022/01/10 00:27:20;;;;;;;;;;;25.00;99.90;;;;;;5072441;28;19913;-77
2022/01/10 00:29:46;;;;;;;;;;;25.00;99.90;;;;;;5072332;28;19908;-75
2022/01/10 00:32:13;;;;;;;;;;;25.00;99.90;;;;;;5072478;28;19962;-76
2022/01/10 00:34:40;;;;;;;;;;;25.00;99.90;;;;;;5072445;28;19966;-77
2022/01/10 00:37:06;;;;;;;;;;;24.90;99.90;;;;;;5072018;28;19912;-76
2022/01/10 00:39:33;;;;;;;;;;;24.90;99.90;;;;;;5072243;28;19944;-76
2022/01/10 00:42:00;;;;;;;;;;;24.90;99.90;;;;;;5072186;28;19919;-76
2022/01/10 00:44:30;;;;;;;;;;;24.80;99.90;;;;;;5072002;28;19915;-75
2022/01/10 00:46:57;;;;;;;;;;;24.70;99.90;;;;;;5082531;28;19912;-73
2022/01/10 00:49:24;;;;;;;;;;;24.70;99.90;;;;;;5106756;28;20409;-74
2022/01/10 00:51:51;;;;;;;;;;;24.80;99.90;;;;;;5111608;28;19998;-73
2022/01/10 00:54:17;;;;;;;;;;;24.80;99.90;;;;;;5092426;28;20381;-74
2022/01/10 00:56:44;;;;;;;;;;;24.90;99.90;;;;;;5092433;28;19908;-75
2022/01/10 00:59:11;;;;;;;;;;;25.50;99.90;;;;;;5091375;28;19950;-76
2022/01/10 01:01:37;;;;;;;;;;;25.90;99.90;;;;;;5090339;28;19939;-77
2022/01/10 01:04:04;;;;;;;;;;;26.20;99.90;;;;;;5090215;28;19967;-75
2022/01/10 01:06:31;;;;;;;;;;;26.70;99.90;;;;;;5090257;28;19916;-76
2022/01/10 01:09:02;;;;;;;;;;;26.80;99.90;;;;;;5090087;28;19955;-76
2022/01/10 01:12:07;;;;;;;;;;;26.70;99.90;;;;;;5090710;28;19956;-76
2022/01/10 01:17:59;;;;;;;;;;;26.50;99.90;;;;;;5092242;28;20377;-75
2022/01/10 01:25:11;;;;;;;;;;;25.90;99.90;;;;;;5092478;28;19931;-73
2022/01/10 01:27:38;;;;;;;;;;;25.80;99.90;;;;;;5092248;28;19915;-76
2022/01/10 01:30:06;;;;;;;;;;;25.60;99.90;;;;;;5092007;28;19908;-76
2022/01/10 01:32:32;;;;;;;;;;;25.50;99.90;;;;;;5092289;28;20359;-76
2022/01/10 01:35:05;;;;;;;;;;;25.50;99.90;;;;;;5091977;28;19915;-76
2022/01/10 01:37:32;;;;;;;;;;;25.40;99.90;;;;;;5092104;28;20003;-76
2022/01/10 01:39:59;;;;;;;;;;;25.20;99.90;;;;;;5091700;28;19911;-76
2022/01/10 01:44:58;;;;;;;;;;;24.70;99.90;;;;;;5091985;28;19908;-75
2022/01/10 01:47:24;;;;;;;;;;;24.60;99.90;;;;;;5091843;28;19912;-76
2022/01/10 01:49:51;;;;;;;;;;;24.50;99.90;;;;;;5092683;28;20263;-76
2022/01/10 01:52:18;;;;;;;;;;;24.50;99.90;;;;;;5095473;28;19908;-76
2022/01/10 01:54:44;;;;;;;;;;;24.60;99.90;;;;;;5095734;28;19984;-76
2022/01/10 01:57:11;;;;;;;;;;;24.60;99.90;;;;;;5095757;28;19962;-77
2022/01/10 01:59:38;;;;;;;;;;;24.60;99.90;;;;;;5095220;28;19914;-77
2022/01/10 02:02:05;;;;;;;;;;;24.80;99.90;;;;;;5095087;28;19916;-76
2022/01/10 02:04:31;;;;;;;;;;;25.00;99.90;;;;;;5095557;28;20341;-76
2022/01/10 02:06:58;;;;;;;;;;;25.10;99.90;;;;;;5095237;28;19912;-76
2022/01/10 02:09:25;;;;;;;;;;;25.40;99.90;;;;;;5095064;28;20053;-75
2022/01/10 02:11:51;;;;;;;;;;;25.70;99.90;;;;;;5094913;28;19958;-77
2022/01/10 02:14:18;;;;;;;;;;;25.90;99.90;;;;;;5095134;28;19912;-74
2022/01/10 02:16:53;;;;;;;;;;;26.00;99.90;;;;;;5095218;28;19951;-74
2022/01/10 02:19:19;;;;;;;;;;;25.90;99.90;;;;;;5095055;28;19908;-74
2022/01/10 02:21:46;;;;;;;;;;;26.00;99.90;;;;;;5095014;28;20415;-74
2022/01/10 02:24:13;;;;;;;;;;;26.00;99.90;;;;;;5094991;28;19946;-76
2022/01/10 02:26:39;;;;;;;;;;;26.00;99.90;;;;;;5095016;28;19971;-75
2022/01/10 02:29:06;;;;;;;;;;;26.00;99.90;;;;;;5094701;28;19914;-75
2022/01/10 02:31:37;;;;;;;;;;;26.20;99.90;;;;;;5094785;28;20003;-74
2022/01/10 02:34:03;;;;;;;;;;;26.30;99.90;;;;;;5094413;28;20319;-76
2022/01/10 02:36:30;;;;;;;;;;;26.50;99.90;;;;;;5094727;28;20389;-74
2022/01/10 02:39:01;;;;;;;;;;;26.60;99.90;;;;;;5094533;28;19908;-76
2022/01/10 02:41:29;;;;;;;;;;;26.90;99.90;;;;;;5094459;28;19915;-73
2022/01/10 02:43:57;;;;;;;;;;;27.10;99.90;;;;;;5094183;28;19919;-76
2022/01/10 02:46:24;;;;;;;;;;;27.20;99.90;;;;;;5093126;28;20343;-75
2022/01/10 02:48:51;;;;;;;;;;;27.20;99.90;;;;;;5094654;28;19916;-76
2022/01/10 02:51:18;;;;;;;;;;;27.30;99.90;;;;;;5094416;28;19908;-76
2022/01/10 02:53:45;;;;;;;;;;;27.30;99.90;;;;;;5094415;28;19951;-76
2022/01/10 02:56:13;;;;;;;;;;;27.30;99.90;;;;;;5094246;28;19994;-76
2022/01/10 02:58:40;;;;;;;;;;;27.20;99.90;;;;;;5126487;27;19970;-76
2022/01/10 03:01:07;;;;;;;;;;;27.30;99.90;;;;;;5093570;28;19951;-76
2022/01/10 03:03:33;;;;;;;;;;;27.40;99.90;;;;;;5094085;28;19922;-74
2022/01/10 03:06:00;;;;;;;;;;;27.40;99.90;;;;;;5093953;28;19908;-73
2022/01/10 03:08:31;;;;;;;;;;;27.50;99.90;;;;;;5094177;28;19972;-76
2022/01/10 03:10:58;;;;;;;;;;;27.50;99.90;;;;;;5093990;28;19920;-73
2022/01/10 03:13:25;;;;;;;;;;;27.50;99.90;;;;;;5093956;28;19920;-77
2022/01/10 03:15:53;;;;;;;;;;;27.40;99.90;;;;;;5093682;28;19940;-75
2022/01/10 03:18:19;;;;;;;;;;;27.50;99.90;;;;;;5126835;27;20018;-74
2022/01/10 03:20:46;;;;;;;;;;;27.50;99.90;;;;;;5093721;28;20007;-75
2022/01/10 03:23:13;;;;;;;;;;;27.40;99.90;;;;;;5093745;28;19916;-76
2022/01/10 03:25:39;;;;;;;;;;;27.10;99.90;;;;;;5093765;28;19961;-74
2022/01/10 03:28:13;;;;;;;;;;;26.80;99.90;;;;;;5092834;28;19919;-76
2022/01/10 03:30:40;;;;;;;;;;;26.80;99.90;;;;;;5093680;28;19978;-76
2022/01/10 03:33:08;;;;;;;;;;;26.80;99.90;;;;;;5093578;28;19915;-74
2022/01/10 03:35:35;;;;;;;;;;;26.90;99.90;;;;;;5093631;28;20402;-76
2022/01/10 03:38:01;;;;;;;;;;;26.90;99.90;;;;;;5093544;28;20282;-75
2022/01/10 03:40:28;;;;;;;;;;;26.90;99.90;;;;;;5093464;28;19908;-74
2022/01/10 03:42:55;;;;;;;;;;;26.90;99.90;;;;;;5093123;28;20322;-75
2022/01/10 03:45:21;;;;;;;;;;;26.80;99.90;;;;;;5093352;28;19908;-76
2022/01/10 03:47:48;;;;;;;;;;;26.80;99.90;;;;;;5093121;28;19943;-75
2022/01/10 03:50:15;;;;;;;;;;;26.80;99.90;;;;;;5093183;28;19919;-75
2022/01/10 03:52:42;;;;;;;;;;;26.80;99.90;;;;;;5093249;28;19908;-76
2022/01/10 03:55:10;;;;;;;;;;;26.70;99.90;;;;;;5093092;28;20384;-77
2022/01/10 03:57:36;;;;;;;;;;;26.70;99.90;;;;;;5093061;28;19908;-73
2022/01/10 04:00:05;;;;;;;;;;;26.80;99.90;;;;;;5092818;28;19954;-75
2022/01/10 04:02:33;;;;;;;;;;;26.80;99.90;;;;;;5092926;28;19923;-73
2022/01/10 04:05:00;;;;;;;;;;;26.80;99.90;;;;;;5092911;28;20350;-75
2022/01/10 04:07:26;;;;;;;;;;;26.90;99.90;;;;;;5092885;28;19915;-76
2022/01/10 04:09:53;;;;;;;;;;;26.90;99.90;;;;;;5091064;28;19951;-75
2022/01/10 04:12:21;;;;;;;;;;;26.90;99.90;;;;;;5092020;28;19908;-76
2022/01/10 04:14:47;;;;;;;;;;;27.00;99.90;;;;;;5092542;28;19908;-75
2022/01/10 04:17:14;;;;;;;;;;;26.90;99.90;;;;;;5092873;28;20559;-75
2022/01/10 04:19:41;;;;;;;;;;;26.80;99.90;;;;;;5093000;28;19909;-75
2022/01/10 04:22:08;;;;;;;;;;;26.70;99.90;;;;;;5092663;28;20013;-76
2022/01/10 04:24:34;;;;;;;;;;;26.70;99.90;;;;;;5092724;28;20053;-76
2022/01/10 04:27:01;;;;;;;;;;;26.70;99.90;;;;;;5092878;28;19915;-77
2022/01/10 04:29:28;;;;;;;;;;;26.70;99.90;;;;;;5092455;28;19915;-76
2022/01/10 04:31:55;;;;;;;;;;;26.70;99.90;;;;;;5125181;27;20377;-76
2022/01/10 04:34:21;;;;;;;;;;;26.60;99.90;;;;;;5092601;28;19909;-76
2022/01/10 04:36:48;;;;;;;;;;;26.60;99.90;;;;;;5092448;28;19996;-76
2022/01/10 04:39:18;;;;;;;;;;;26.60;99.90;;;;;;5092404;28;19966;-76
2022/01/10 04:41:44;;;;;;;;;;;26.60;99.90;;;;;;5092702;28;19916;-75
2022/01/10 04:44:11;;;;;;;;;;;26.70;99.90;;;;;;5092855;28;19908;-76
2022/01/10 04:46:38;;;;;;;;;;;26.60;99.90;;;;;;5092601;28;19908;-75
2022/01/10 04:49:07;;;;;;;;;;;26.50;99.90;;;;;;5092825;28;19918;-76
2022/01/10 04:51:34;;;;;;;;;;;26.60;99.90;;;;;;5092543;28;20329;-73
2022/01/10 04:54:01;;;;;;;;;;;26.50;99.90;;;;;;5125320;28;19912;-74
2022/01/10 04:56:27;;;;;;;;;;;26.50;99.90;;;;;;5092718;28;20320;-76
2022/01/10 04:58:54;;;;;;;;;;;26.50;99.90;;;;;;5092410;28;19915;-76
2022/01/10 05:01:21;;;;;;;;;;;26.50;99.90;;;;;;5092838;28;19967;-77
2022/01/10 05:03:47;;;;;;;;;;;26.40;99.90;;;;;;5093472;28;20007;-76
2022/01/10 05:06:14;;;;;;;;;;;26.50;99.90;;;;;;5094233;28;19919;-76
2022/01/10 05:08:41;;;;;;;;;;;26.50;99.90;;;;;;5088052;28;20325;-75
2022/01/10 05:11:08;;;;;;;;;;;26.40;99.90;;;;;;5072957;28;20053;-76
2022/01/10 05:13:35;;;;;;;;;;;26.30;99.90;;;;;;5074800;28;19919;-76
2022/01/10 05:16:02;;;;;;;;;;;26.40;99.90;;;;;;5072207;28;19909;-76
2022/01/10 05:18:28;;;;;;;;;;;26.20;99.90;;;;;;5072163;28;20186;-75
2022/01/10 05:20:55;;;;;;;;;;;26.20;99.90;;;;;;5071599;28;19966;-76
2022/01/10 05:23:22;;;;;;;;;;;26.10;99.90;;;;;;5072422;28;19995;-73
2022/01/10 05:25:48;;;;;;;;;;;26.10;99.90;;;;;;5076035;28;19935;-77
2022/01/10 05:28:17;;;;;;;;;;;26.20;99.90;;;;;;5075667;28;19919;-73
2022/01/10 05:30:44;;;;;;;;;;;26.20;99.90;;;;;;5075781;28;19908;-76
2022/01/10 05:33:10;;;;;;;;;;;26.40;99.90;;;;;;5075710;28;20351;-77
2022/01/10 05:35:39;;;;;;;;;;;26.40;99.90;;;;;;5075627;28;20402;-75
2022/01/10 05:38:06;;;;;;;;;;;26.30;99.90;;;;;;5075343;28;19909;-75
2022/01/10 05:40:33;;;;;;;;;;;26.20;99.90;;;;;;5075543;28;19991;-76
2022/01/10 05:43:00;;;;;;;;;;;26.10;99.90;;;;;;5075273;28;19916;-74
2022/01/10 05:45:27;;;;;;;;;;;26.20;99.90;;;;;;5075418;28;19915;-76
2022/01/10 05:47:53;;;;;;;;;;;26.30;99.90;;;;;;5075379;28;19912;-76
2022/01/10 05:50:32;;;;;;;;;;;26.30;99.90;;;;;;5075474;28;19951;-76
2022/01/10 05:52:59;;;;;;;;;;;26.30;99.90;;;;;;5072400;28;19912;-74
2022/01/10 05:55:26;;;;;;;;;;;26.20;99.90;;;;;;5073456;28;19950;-77
2022/01/10 05:57:53;;;;;;;;;;;26.10;99.90;;;;;;5072983;28;19913;-75
2022/01/10 06:00:20;;;;;;;;;;;26.00;99.90;;;;;;5073055;28;19914;-76
2022/01/10 06:02:47;;;;;;;;;;;26.00;99.90;;;;;;5073071;28;19917;-76
2022/01/10 06:05:13;;;;;;;;;;;25.90;99.90;;;;;;5071247;28;19914;-76
2022/01/10 06:07:41;;;;;;;;;;;25.90;99.90;;;;;;5072865;28;19915;-76
2022/01/10 06:10:08;;;;;;;;;;;25.90;99.90;;;;;;5072426;28;19921;-76
2022/01/10 06:12:34;;;;;;;;;;;25.90;99.90;;;;;;5072672;28;19952;-75
2022/01/10 06:15:01;;;;;;;;;;;25.90;99.90;;;;;;5072774;28;19915;-74
2022/01/10 06:17:28;;;;;;;;;;;25.80;99.90;;;;;;5072623;28;19955;-74
2022/01/10 06:19:54;;;;;;;;;;;25.70;99.90;;;;;;5072500;28;19920;-76
2022/01/10 06:22:21;;;;;;;;;;;25.80;99.90;;;;;;5072604;28;19967;-76
2022/01/10 06:24:48;;;;;;;;;;;25.70;99.90;;;;;;5072600;28;19916;-77
2022/01/10 06:27:15;;;;;;;;;;;25.70;99.90;;;;;;5072357;28;20390;-75
2022/01/10 06:29:42;;;;;;;;;;;25.70;99.90;;;;;;5072599;28;19995;-76
2022/01/10 06:32:08;;;;;;;;;;;25.70;99.90;;;;;;5072047;28;19908;-75
2022/01/10 06:34:35;;;;;;;;;;;25.70;99.90;;;;;;5072590;28;19913;-76
2022/01/10 06:37:02;;;;;;;;;;;25.70;99.90;;;;;;5071719;28;19943;-76
2022/01/10 06:39:29;;;;;;;;;;;25.70;99.90;;;;;;5072517;28;19931;-75
2022/01/10 06:41:56;;;;;;;;;;;25.70;99.90;;;;;;5071827;28;19916;-76
2022/01/10 06:44:23;;;;;;;;;;;25.70;99.90;;;;;;5072018;28;19913;-75
2022/01/10 06:46:50;;;;;;;;;;;25.70;99.90;;;;;;5072328;28;19944;-76
2022/01/10 06:49:16;;;;;;;;;;;25.70;99.90;;;;;;5072209;28;19945;-76
2022/01/10 06:51:43;;;;;;;;;;;25.60;99.90;;;;;;5072145;28;20011;-75
2022/01/10 06:54:10;;;;;;;;;;;25.60;99.90;;;;;;5071809;28;20391;-74
2022/01/10 06:56:36;;;;;;;;;;;25.60;99.90;;;;;;5071606;28;19912;-76
2022/01/10 06:59:03;;;;;;;;;;;25.50;99.90;;;;;;5072152;28;19930;-76
2022/01/10 07:01:30;;;;;;;;;;;25.60;99.90;;;;;;5071795;28;19908;-76
2022/01/10 07:03:57;;;;;;;;;;;25.60;99.90;;;;;;5071672;28;20240;-76
2022/01/10 07:06:24;;;;;;;;;;;25.50;99.90;;;;;;5071734;28;19916;-75
2022/01/10 07:08:50;;;;;;;;;;;25.50;99.90;;;;;;5071684;28;19985;-76
2022/01/10 07:11:17;;;;;;;;;;;25.50;99.90;;;;;;5071439;28;20370;-76
2022/01/10 07:13:44;;;;;;;;;;;25.50;99.90;;;;;;5071525;28;19931;-76
2022/01/10 07:16:11;;;;;;;;;;;25.40;99.90;;;;;;5071696;28;19912;-76
2022/01/10 07:18:39;;;;;;;;;;;25.30;99.90;;;;;;5071728;28;20358;-75
2022/01/10 07:21:06;;;;;;;;;;;25.20;99.90;;;;;;5071454;28;20420;-76
2022/01/10 07:23:32;;;;;;;;;;;25.20;99.90;;;;;;5071056;28;19917;-76
2022/01/10 07:25:59;;;;;;;;;;;25.20;99.90;;;;;;5071230;28;20320;-75
2022/01/10 07:28:25;;;;;;;;;;;25.10;99.90;;;;;;5071223;28;19923;-75
2022/01/10 07:30:52;;;;;;;;;;;25.10;99.90;;;;;;5071323;28;20290;-76
2022/01/10 07:33:19;;;;;;;;;;;25.00;99.90;;;;;;5071127;28;19919;-76
2022/01/10 07:35:45;;;;;;;;;;;25.00;99.90;;;;;;5070908;28;19916;-75
2022/01/10 07:38:12;;;;;;;;;;;25.00;99.90;;;;;;5070975;28;19917;-76
2022/01/10 07:40:39;;;;;;;;;;;24.90;99.90;;;;;;5071165;28;19915;-76
2022/01/10 07:43:05;;;;;;;;;;;24.80;99.90;;;;;;5070881;28;20343;-77
2022/01/10 07:45:32;;;;;;;;;;;24.80;99.90;;;;;;5071029;28;20325;-75
2022/01/10 07:47:59;;;;;;;;;;;24.80;99.90;;;;;;5070643;28;19913;-75
2022/01/10 07:50:27;;;;;;;;;;;24.80;99.90;;;;;;5070796;28;19939;-75
2022/01/10 07:52:53;;;;;;;;;;;24.80;99.90;;;;;;5070619;28;19912;-76
2022/01/10 07:55:20;;;;;;;;;;;24.90;99.90;;;;;;5070979;28;19912;-77
2022/01/10 07:57:47;;;;;;;;;;;24.80;99.90;;;;;;5070664;28;19912;-76
2022/01/10 08:00:13;;;;;;;;;;;24.80;99.90;;;;;;5070799;28;20370;-75
2022/01/10 08:02:40;;;;;;;;;;;24.80;99.90;;;;;;5070265;28;19951;-77
2022/01/10 08:05:08;;;;;;;;;;;24.70;99.90;;;;;;5071104;28;19909;-76
2022/01/10 08:07:34;;;;;;;;;;;24.60;99.90;;;;;;5072723;28;19924;-76
2022/01/10 08:10:02;;;;;;;;;;;24.60;99.90;;;;;;5072319;28;20367;-76
2022/01/10 08:12:28;;;;;;;;;;;24.50;99.90;;;;;;5072342;28;19908;-76
2022/01/10 08:14:55;;;;;;;;;;;24.50;99.90;;;;;;5072856;28;20278;-76
2022/01/10 08:17:22;;;;;;;;;;;24.40;99.90;;;;;;5073183;28;20271;-75
2022/01/10 08:19:48;;;;;;;;;;;24.40;99.90;;;;;;5072569;28;19915;-77
2022/01/10 08:22:15;;;;;;;;;;;24.40;99.90;;;;;;5072618;28;20370;-77
2022/01/10 08:24:42;;;;;;;;;;;24.30;99.90;;;;;;5072641;28;19908;-75
2022/01/10 08:27:08;;;;;;;;;;;24.30;99.90;;;;;;5072566;28;20275;-75
2022/01/10 08:29:35;;;;;;;;;;;24.30;99.90;;;;;;5072480;28;19913;-77
2022/01/10 08:32:02;;;;;;;;;;;24.30;99.90;;;;;;5072329;28;19909;-77
2022/01/10 08:34:29;;;;;;;;;;;24.30;99.90;;;;;;5072435;28;19909;-77
2022/01/10 08:36:56;;;;;;;;;;;24.30;99.90;;;;;;5072493;28;19913;-77
2022/01/10 08:39:23;;;;;;;;;;;24.20;99.90;;;;;;5072710;28;19913;-77
2022/01/10 08:41:50;;;;;;;;;;;24.20;99.90;;;;;;5072016;28;19909;-77
2022/01/10 08:44:17;;;;;;;;;;;24.20;99.90;;;;;;5105251;27;19916;-77
2022/01/10 08:46:45;;;;;;;;;;;24.20;99.90;;;;;;5071538;28;20351;-76
2022/01/10 08:49:13;;;;;;;;;;;24.20;99.90;;;;;;5070066;28;19912;-76
2022/01/10 08:51:43;;;;;;;;;;;24.20;99.90;;;;;;5072148;28;19909;-76
2022/01/10 08:54:10;;;;;;;;;;;24.20;99.90;;;;;;5071757;28;20173;-76
2022/01/10 08:56:36;;;;;;;;;;;24.10;99.90;;;;;;5079851;28;19973;-76
2022/01/10 08:59:04;;;;;;;;;;;24.00;99.90;;;;;;5071554;28;19944;-77
2022/01/10 09:01:31;;;;;;;;;;;24.00;99.90;;;;;;5074347;28;19962;-76
2022/01/10 09:03:58;;;;;;;;;;;24.00;99.90;;;;;;5074107;28;19928;-76
2022/01/10 09:06:25;;;;;;;;;;;24.00;99.90;;;;;;5074138;28;19935;-77
2022/01/10 09:08:52;;;;;;;;;;;23.90;99.90;;;;;;5073306;28;19916;-78
2022/01/10 09:11:18;;;;;;;;;;;24.00;99.90;;;;;;5053924;28;19989;-76
2022/01/10 09:13:45;;;;;;;;;;;23.90;99.90;;;;;;5054533;28;19913;-77
2022/01/10 09:16:14;;;;;;;;;;;24.00;99.90;;;;;;5053804;28;20391;-77
2022/01/10 09:18:41;;;;;;;;;;;24.00;99.90;;;;;;5053962;28;19920;-77
2022/01/10 09:21:08;;;;;;;;;;;23.90;99.90;;;;;;5053701;28;19954;-76
2022/01/10 09:23:34;;;;;;;;;;;23.90;99.90;;;;;;5053585;28;19917;-77
2022/01/10 09:26:01;;;;;;;;;;;23.90;99.90;;;;;;5053741;28;19909;-77
2022/01/10 09:28:28;;;;;;;;;;;23.90;99.90;;;;;;5053629;28;19963;-76
2022/01/10 09:30:54;;;;;;;;;;;23.90;99.90;;;;;;5053739;28;20160;-76
2022/01/10 09:33:21;;;;;;;;;;;23.90;99.90;;;;;;5053389;28;19913;-77
2022/01/10 09:35:48;;;;;;;;;;;23.90;99.90;;;;;;5053404;28;20389;-76
2022/01/10 09:38:15;;;;;;;;;;;23.80;99.90;;;;;;5052910;28;19913;-77
2022/01/10 09:40:43;;;;;;;;;;;23.90;99.90;;;;;;5053373;28;19959;-74
2022/01/10 09:43:09;;;;;;;;;;;23.90;99.90;;;;;;5051925;28;20347;-76
2022/01/10 09:45:36;;;;;;;;;;;23.90;99.90;;;;;;5053711;28;19912;-72
2022/01/10 09:48:03;;;;;;;;;;;23.90;99.90;;;;;;5052912;28;19967;-75
2022/01/10 09:50:30;;;;;;;;;;;23.80;99.90;;;;;;5053382;28;19948;-75
2022/01/10 09:52:56;;;;;;;;;;;23.80;99.90;;;;;;5052697;28;19936;-75
2022/01/10 09:55:23;;;;;;;;;;;23.80;99.90;;;;;;5053288;28;20398;-75
2022/01/10 09:57:50;;;;;;;;;;;23.80;99.90;;;;;;5052718;28;20008;-76
2022/01/10 10:00:17;;;;;;;;;;;23.80;99.90;;;;;;5052740;28;19909;-76
2022/01/10 10:02:44;;;;;;;;;;;23.80;99.90;;;;;;5052941;28;19923;-76
2022/01/10 10:05:12;;;;;;;;;;;23.80;99.90;;;;;;5052870;28;19909;-76
2022/01/10 10:07:39;;;;;;;;;;;23.80;99.90;;;;;;5052603;28;19977;-75
2022/01/10 10:10:12;;;;;;;;;;;23.80;99.90;;;;;;5061543;28;20382;-75
2022/01/10 10:12:39;;;;;;;;;;;23.80;99.90;;;;;;5072862;28;19936;-75
2022/01/10 10:15:07;;;;;;;;;;;23.70;99.90;;;;;;5072828;28;19920;-76
2022/01/10 10:17:35;;;;;;;;;;;23.70;99.90;;;;;;5072703;28;19957;-77
2022/01/10 10:20:12;;;;;;;;;;;23.60;99.90;;;;;;5072619;28;19935;-76
2022/01/10 10:22:42;;;;;;;;;;;23.60;99.90;;;;;;5072218;27;19928;-76
2022/01/10 10:25:09;;;;;;;;;;;23.70;99.90;;;;;;5072650;28;20406;-76
2022/01/10 10:27:37;;;;;;;;;;;23.60;99.90;;;;;;5072538;28;19916;-76
2022/01/10 10:30:10;;;;;;;;;;;23.60;99.90;;;;;;5072257;28;19965;-76
2022/01/10 10:32:37;;;;;;;;;;;23.60;99.90;;;;;;5072530;28;20026;-77
2022/01/10 10:35:05;;;;;;;;;;;23.60;99.90;;;;;;5072508;28;19908;-76
2022/01/10 10:37:35;;;;;;;;;;;23.60;99.90;;;;;;5071937;28;19912;-76
2022/01/10 10:40:03;;;;;;;;;;;23.60;99.90;;;;;;5071904;28;19958;-74
2022/01/10 10:42:30;;;;;;;;;;;23.60;99.90;;;;;;5104719;28;19981;-77
2022/01/10 10:44:56;;;;;;;;;;;23.60;99.90;;;;;;5072387;28;20297;-77
2022/01/10 10:47:26;;;;;;;;;;;23.60;99.90;;;;;;5072198;28;19920;-74
2022/01/10 10:49:57;;;;;;;;;;;23.60;99.90;;;;;;5072030;28;20379;-76
2022/01/10 10:52:30;;;;;;;;;;;23.60;99.90;;;;;;5071304;28;19955;-77
2022/01/10 10:54:56;;;;;;;;;;;23.60;99.90;;;;;;5072255;28;20003;-76
2022/01/10 10:57:23;;;;;;;;;;;23.50;99.90;;;;;;5071929;28;19913;-76
2022/01/10 10:59:50;;;;;;;;;;;23.50;99.90;;;;;;5071948;28;19921;-73
2022/01/10 11:02:18;;;;;;;;;;;23.50;99.90;;;;;;5071800;28;20287;-73
2022/01/10 11:04:45;;;;;;;;;;;23.50;99.90;;;;;;5071448;28;19916;-76
2022/01/10 11:07:12;;;;;;;;;;;23.50;99.90;;;;;;5071360;28;20336;-77
2022/01/10 11:09:39;;;;;;;;;;;23.50;99.90;;;;;;5071634;28;19921;-76
2022/01/10 11:12:05;;;;;;;;;;;23.50;99.90;;;;;;5071418;28;19990;-76
2022/01/10 11:14:32;;;;;;;;;;;23.50;99.90;;;;;;5071748;28;19915;-76
2022/01/10 11:16:59;;;;;;;;;;;23.50;99.90;;;;;;5071462;28;19912;-76
2022/01/10 11:19:26;;;;;;;;;;;23.40;99.90;;;;;;5071168;28;20426;-77
2022/01/10 11:22:04;;;;;;;;;;;23.50;99.90;;;;;;5070364;28;19908;-77
2022/01/10 11:24:43;;;;;;;;;;;23.50;99.90;;;;;;5070995;28;19919;-76
2022/01/10 11:27:29;;;;;;;;;;;23.50;99.90;;;;;;5103774;28;19915;-77
2022/01/10 11:29:57;;;;;;;;;;;23.50;99.90;;;;;;5071138;28;20002;-75
2022/01/10 11:32:42;;;;;;;;;;;23.40;99.90;;;;;;5071502;28;19913;-76
2022/01/10 11:35:09;;;;;;;;;;;23.40;99.90;;;;;;5071483;28;19913;-77
2022/01/10 11:37:36;;;;;;;;;;;23.50;99.90;;;;;;5070269;28;19923;-76
2022/01/10 11:40:03;;;;;;;;;;;23.50;99.90;;;;;;5070844;28;20247;-73
2022/01/10 11:42:29;;;;;;;;;;;23.40;99.90;;;;;;5071324;28;20249;-77
2022/01/10 11:45:22;;;;;;;;;;;23.50;99.90;;;;;;5071499;28;20365;-76
2022/01/10 11:48:09;;;;;;;;;;;23.40;99.90;;;;;;5069941;28;19908;-74
2022/01/10 11:50:36;;;;;;;;;;;23.40;99.90;;;;;;5070766;28;19963;-77
2022/01/10 11:53:03;;;;;;;;;;;23.50;99.90;;;;;;5070536;28;20363;-77
2022/01/10 11:55:31;;;;;;;;;;;23.40;99.90;;;;;;5071079;28;20286;-76
2022/01/10 11:58:27;;;;;;;;;;;23.40;99.90;;;;;;5070850;28;19912;-77
2022/01/10 12:01:04;;;;;;;;;;;23.40;99.90;;;;;;5065911;28;19947;-77
2022/01/10 12:03:32;;;;;;;;;;;23.40;99.90;;;;;;5070658;28;19927;-77
2022/01/10 12:06:01;;;;;;;;;;;23.40;99.90;;;;;;5070903;28;20295;-78
2022/01/10 12:08:28;;;;;;;;;;;23.40;99.90;;;;;;5070278;28;19913;-78
2022/01/10 12:10:55;;;;;;;;;;;23.40;99.90;;;;;;5070413;28;19928;-78
2022/01/10 12:13:26;;;;;;;;;;;23.40;99.90;;;;;;5070404;28;19918;-77
2022/01/10 12:15:56;;;;;;;;;;;23.40;99.90;;;;;;5070247;28;19909;-77
2022/01/10 12:18:23;;;;;;;;;;;23.40;99.90;;;;;;5070215;28;19916;-75
2022/01/10 12:20:53;;;;;;;;;;;23.50;99.90;;;;;;5070578;28;19912;-77
2022/01/10 12:23:19;;;;;;;;;;;23.40;99.90;;;;;;5070424;28;19927;-77
2022/01/10 12:25:47;;;;;;;;;;;23.40;99.90;;;;;;5070084;28;19939;-73
2022/01/10 12:28:15;;;;;;;;;;;23.40;99.90;;;;;;5070352;28;19908;-77
2022/01/10 12:30:44;;;;;;;;;;;23.40;99.90;;;;;;5070046;28;19986;-76
2022/01/10 12:33:11;;;;;;;;;;;23.40;99.90;;;;;;5069717;28;19932;-78
2022/01/10 12:35:37;;;;;;;;;;;23.40;99.90;;;;;;5070602;28;20295;-76
2022/01/10 12:38:04;;;;;;;;;;;23.40;99.90;;;;;;5070436;28;19913;-77
2022/01/10 12:40:32;;;;;;;;;;;23.40;99.90;;;;;;5070315;28;20674;-76
2022/01/10 12:42:59;;;;;;;;;;;23.40;99.90;;;;;;5069990;28;20363;-77
2022/01/10 12:45:31;;;;;;;;;;;23.40;99.90;;;;;;5070335;28;19916;-77
2022/01/10 12:47:58;;;;;;;;;;;23.40;99.90;;;;;;5070186;28;19947;-77
2022/01/10 12:50:25;;;;;;;;;;;23.40;99.90;;;;;;5070407;28;19915;-76
2022/01/10 12:52:55;;;;;;;;;;;23.40;99.90;;;;;;5070053;28;19931;-77
2022/01/10 12:55:21;;;;;;;;;;;23.40;99.90;;;;;;5069877;28;20286;-77
2022/01/10 12:57:49;;;;;;;;;;;23.40;99.90;;;;;;5069936;28;20379;-75
2022/01/10 13:00:16;;;;;;;;;;;23.40;99.90;;;;;;5070087;28;20042;-76
2022/01/10 13:02:43;;;;;;;;;;;23.40;99.90;;;;;;5070334;28;20015;-76
2022/01/10 13:05:14;;;;;;;;;;;23.40;99.90;;;;;;5070251;28;19913;-77
2022/01/10 13:07:42;;;;;;;;;;;23.40;99.90;;;;;;5070406;28;19912;-78
2022/01/10 13:10:17;;;;;;;;;;;23.40;99.90;;;;;;5069340;28;19921;-77
2022/01/10 13:12:47;;;;;;;;;;;23.30;99.90;;;;;;5070339;28;19919;-77
2022/01/10 13:15:17;;;;;;;;;;;23.30;99.90;;;;;;5070239;28;20025;-74
2022/01/10 13:17:52;;;;;;;;;;;23.30;99.90;;;;;;5070036;28;20028;-76
2022/01/10 13:20:20;;;;;;;;;;;23.40;99.90;;;;;;5070084;28;19952;-77
2022/01/10 13:22:46;;;;;;;;;;;23.40;99.90;;;;;;5069691;28;19920;-75
2022/01/10 13:25:17;;;;;;;;;;;23.30;99.90;;;;;;5070067;28;19908;-75
2022/01/10 13:27:52;;;;;;;;;;;23.30;99.90;;;;;;5070260;28;19912;-77
2022/01/10 13:30:24;;;;;;;;;;;23.30;99.90;;;;;;5069836;28;20003;-76
2022/01/10 13:32:56;;;;;;;;;;;23.30;99.90;;;;;;5069837;28;19914;-76
2022/01/10 13:35:23;;;;;;;;;;;23.20;99.90;;;;;;5069557;28;20410;-77
2022/01/10 13:37:56;;;;;;;;;;;23.20;99.90;;;;;;5069670;28;19975;-74
2022/01/10 13:40:25;;;;;;;;;;;23.20;99.90;;;;;;5069809;28;19912;-75
2022/01/10 13:43:03;;;;;;;;;;;23.20;99.90;;;;;;5069740;28;19957;-77
2022/01/10 13:45:47;;;;;;;;;;;23.30;99.90;;;;;;5071675;28;20363;-77
2022/01/10 13:48:19;;;;;;;;;;;23.30;99.90;;;;;;5073129;28;19912;-78
2022/01/10 13:51:12;;;;;;;;;;;23.20;99.90;;;;;;5073273;28;19912;-77
2022/01/10 13:53:46;;;;;;;;;;;23.20;99.90;;;;;;5073240;28;20371;-77
2022/01/10 13:56:12;;;;;;;;;;;23.30;99.90;;;;;;5072996;28;19912;-77
2022/01/10 13:58:43;;;;;;;;;;;23.20;99.90;;;;;;5073282;28;19916;-76
2022/01/10 14:01:11;;;;;;;;;;;23.20;99.90;;;;;;5072835;28;19952;-77
2022/01/10 14:03:38;;;;;;;;;;;23.10;99.90;;;;;;5072977;28;19917;-74
2022/01/10 14:06:15;;;;;;;;;;;23.10;99.90;;;;;;5072892;28;20355;-77
2022/01/10 14:08:44;;;;;;;;;;;23.10;99.90;;;;;;5073167;28;20525;-78
2022/01/10 14:11:13;;;;;;;;;;;23.10;99.90;;;;;;5072694;28;19948;-79
2022/01/10 14:13:47;;;;;;;;;;;23.10;99.90;;;;;;5072616;28;19908;-78
2022/01/10 14:16:18;;;;;;;;;;;23.10;99.90;;;;;;5072781;28;19916;-76
2022/01/10 14:18:46;;;;;;;;;;;23.00;99.90;;;;;;5072840;28;19916;-77
2022/01/10 14:21:14;;;;;;;;;;;23.00;99.90;;;;;;5072760;28;19931;-77
2022/01/10 14:23:41;;;;;;;;;;;23.00;99.90;;;;;;5072764;28;20351;-76
2022/01/10 14:26:09;;;;;;;;;;;23.10;99.90;;;;;;5072276;28;19908;-78
2022/01/10 14:28:35;;;;;;;;;;;23.10;99.90;;;;;;5070885;28;20389;-77
2022/01/10 14:31:02;;;;;;;;;;;23.10;99.90;;;;;;5072560;28;20646;-77